sensor_id;sensor_type;location;lat;lon;timestamp;P1;durP1;ratioP1;P2;durP2;ratioP2
55364;SDS011;41245;45.384;20.390;2022-09-27T00:00:35;507.35;;;98.38;;
55364;SDS011;41245;45.384;20.390;2022-09-27T00:03:01;463.75;;;91.53;;
55364;SDS011;41245;45.384;20.390;2022-09-27T00:05:27;390.98;;;91.40;;
55364;SDS011;41245;45.384;20.390;2022-09-27T00:07:53;430.88;;;90.90;;
55364;SDS011;41245;45.384;20.390;2022-09-27T00:10:19;368.85;;;82.93;;
55364;SDS011;41245;45.384;20.390;2022-09-27T00:12:45;543.85;;;102.15;;
55364;SDS011;41245;45.384;20.390;2022-09-27T00:15:12;450.75;;;90.00;;
55364;SDS011;41245;45.384;20.390;2022-09-27T00:17:38;438.23;;;92.28;;
55364;SDS011;41245;45.384;20.390;2022-09-27T00:20:05;503.42;;;98.10;;
55364;SDS011;41245;45.384;20.390;2022-09-27T00:22:32;469.77;;;94.55;;
55364;SDS011;41245;45.384;20.390;2022-09-27T00:24:58;493.70;;;93.70;;
55364;SDS011;41245;45.384;20.390;2022-09-27T00:27:24;349.80;;;78.18;;
55364;SDS011;41245;45.384;20.390;2022-09-27T00:29:51;273.33;;;66.07;;
55364;SDS011;41245;45.384;20.390;2022-09-27T00:32:17;291.88;;;69.85;;
55364;SDS011;41245;45.384;20.390;2022-09-27T00:34:42;346.70;;;77.05;;
55364;SDS011;41245;45.384;20.390;2022-09-27T00:37:09;293.75;;;69.55;;
55364;SDS011;41245;45.384;20.390;2022-09-27T00:39:35;376.73;;;81.13;;
55364;SDS011;41245;45.384;20.390;2022-09-27T00:42:03;297.80;;;73.18;;
55364;SDS011;41245;45.384;20.390;2022-09-27T00:49:47;375.58;;;77.10;;
55364;SDS011;41245;45.384;20.390;2022-09-27T00:52:20;293.95;;;68.50;;
55364;SDS011;41245;45.384;20.390;2022-09-27T00:54:51;431.20;;;79.40;;
55364;SDS011;41245;45.384;20.390;2022-09-27T00:57:21;304.40;;;66.63;;
55364;SDS011;41245;45.384;20.390;2022-09-27T00:59:51;509.60;;;82.63;;
55364;SDS011;41245;45.384;20.390;2022-09-27T01:02:33;355.75;;;68.30;;
55364;SDS011;41245;45.384;20.390;2022-09-27T01:05:05;396.00;;;71.03;;
55364;SDS011;41245;45.384;20.390;2022-09-27T01:07:34;435.08;;;76.47;;
55364;SDS011;41245;45.384;20.390;2022-09-27T01:09:59;329.67;;;62.65;;
55364;SDS011;41245;45.384;20.390;2022-09-27T01:12:44;376.23;;;71.53;;
55364;SDS011;41245;45.384;20.390;2022-09-27T01:31:56;294.50;;;61.90;;
55364;SDS011;41245;45.384;20.390;2022-09-27T01:40:19;209.48;;;55.72;;
55364;SDS011;41245;45.384;20.390;2022-09-27T01:42:58;240.90;;;59.05;;
55364;SDS011;41245;45.384;20.390;2022-09-27T01:45:37;203.65;;;55.00;;
55364;SDS011;41245;45.384;20.390;2022-09-27T01:48:17;139.48;;;49.75;;
55364;SDS011;41245;45.384;20.390;2022-09-27T01:50:55;153.15;;;51.17;;
55364;SDS011;41245;45.384;20.390;2022-09-27T01:56:00;135.75;;;49.63;;
55364;SDS011;41245;45.384;20.390;2022-09-27T01:58:31;235.93;;;69.45;;
55364;SDS011;41245;45.384;20.390;2022-09-27T02:01:07;254.73;;;70.57;;
55364;SDS011;41245;45.384;20.390;2022-09-27T02:03:36;264.20;;;77.55;;
55364;SDS011;41245;45.384;20.390;2022-09-27T02:06:09;261.50;;;79.47;;
55364;SDS011;41245;45.384;20.390;2022-09-27T02:08:40;273.30;;;82.15;;
55364;SDS011;41245;45.384;20.390;2022-09-27T02:11:27;265.17;;;82.22;;
55364;SDS011;41245;45.384;20.390;2022-09-27T02:14:01;254.35;;;77.57;;
55364;SDS011;41245;45.384;20.390;2022-09-27T02:16:50;238.43;;;74.75;;
55364;SDS011;41245;45.384;20.390;2022-09-27T02:21:51;217.65;;;70.32;;
55364;SDS011;41245;45.384;20.390;2022-09-27T02:24:39;172.93;;;61.47;;
55364;SDS011;41245;45.384;20.390;2022-09-27T02:27:17;170.95;;;58.00;;
55364;SDS011;41245;45.384;20.390;2022-09-27T02:30:10;185.02;;;60.83;;
55364;SDS011;41245;45.384;20.390;2022-09-27T02:32:36;182.65;;;58.50;;
55364;SDS011;41245;45.384;20.390;2022-09-27T02:35:04;185.32;;;57.05;;
55364;SDS011;41245;45.384;20.390;2022-09-27T02:37:52;189.85;;;57.00;;
55364;SDS011;41245;45.384;20.390;2022-09-27T02:40:19;141.82;;;52.42;;
55364;SDS011;41245;45.384;20.390;2022-09-27T02:42:46;159.50;;;55.05;;
55364;SDS011;41245;45.384;20.390;2022-09-27T02:45:12;185.18;;;57.75;;
55364;SDS011;41245;45.384;20.390;2022-09-27T02:55:27;185.65;;;56.95;;
55364;SDS011;41245;45.384;20.390;2022-09-27T03:03:24;135.15;;;50.55;;
55364;SDS011;41245;45.384;20.390;2022-09-27T03:06:04;170.43;;;54.88;;
55364;SDS011;41245;45.384;20.390;2022-09-27T03:08:33;154.45;;;51.03;;
55364;SDS011;41245;45.384;20.390;2022-09-27T03:11:00;126.05;;;47.22;;
55364;SDS011;41245;45.384;20.390;2022-09-27T03:13:26;144.18;;;50.80;;
55364;SDS011;41245;45.384;20.390;2022-09-27T03:15:52;159.35;;;52.65;;
55364;SDS011;41245;45.384;20.390;2022-09-27T03:18:17;127.97;;;47.47;;
55364;SDS011;41245;45.384;20.390;2022-09-27T03:20:44;140.75;;;50.83;;
55364;SDS011;41245;45.384;20.390;2022-09-27T03:23:09;142.98;;;50.83;;
55364;SDS011;41245;45.384;20.390;2022-09-27T03:25:35;121.78;;;45.95;;
55364;SDS011;41245;45.384;20.390;2022-09-27T03:28:01;117.18;;;45.90;;
55364;SDS011;41245;45.384;20.390;2022-09-27T03:30:26;115.97;;;46.25;;
55364;SDS011;41245;45.384;20.390;2022-09-27T03:32:52;111.50;;;43.13;;
55364;SDS011;41245;45.384;20.390;2022-09-27T03:35:18;117.60;;;44.90;;
55364;SDS011;41245;45.384;20.390;2022-09-27T03:37:44;122.18;;;46.05;;
55364;SDS011;41245;45.384;20.390;2022-09-27T03:40:11;117.97;;;44.25;;
55364;SDS011;41245;45.384;20.390;2022-09-27T03:42:37;124.18;;;45.53;;
55364;SDS011;41245;45.384;20.390;2022-09-27T03:45:03;140.23;;;49.30;;
55364;SDS011;41245;45.384;20.390;2022-09-27T03:47:29;129.13;;;47.55;;
55364;SDS011;41245;45.384;20.390;2022-09-27T03:49:54;133.38;;;47.72;;
55364;SDS011;41245;45.384;20.390;2022-09-27T03:52:20;156.05;;;51.10;;
55364;SDS011;41245;45.384;20.390;2022-09-27T03:54:46;133.90;;;48.22;;
55364;SDS011;41245;45.384;20.390;2022-09-27T03:57:12;135.23;;;45.05;;
55364;SDS011;41245;45.384;20.390;2022-09-27T03:59:38;147.35;;;49.47;;
55364;SDS011;41245;45.384;20.390;2022-09-27T04:02:03;142.68;;;45.03;;
55364;SDS011;41245;45.384;20.390;2022-09-27T04:04:29;125.18;;;44.50;;
55364;SDS011;41245;45.384;20.390;2022-09-27T04:06:55;118.75;;;42.05;;
55364;SDS011;41245;45.384;20.390;2022-09-27T04:09:23;119.57;;;43.50;;
55364;SDS011;41245;45.384;20.390;2022-09-27T04:11:49;118.82;;;43.15;;
55364;SDS011;41245;45.384;20.390;2022-09-27T04:14:15;117.65;;;42.92;;
55364;SDS011;41245;45.384;20.390;2022-09-27T04:16:41;115.93;;;43.53;;
55364;SDS011;41245;45.384;20.390;2022-09-27T04:19:06;119.45;;;40.75;;
55364;SDS011;41245;45.384;20.390;2022-09-27T04:21:33;138.68;;;46.72;;
55364;SDS011;41245;45.384;20.390;2022-09-27T04:23:59;133.30;;;44.92;;
55364;SDS011;41245;45.384;20.390;2022-09-27T04:26:25;128.18;;;44.67;;
55364;SDS011;41245;45.384;20.390;2022-09-27T04:28:51;127.00;;;43.83;;
55364;SDS011;41245;45.384;20.390;2022-09-27T04:31:17;126.28;;;45.78;;
55364;SDS011;41245;45.384;20.390;2022-09-27T04:33:43;148.43;;;48.58;;
55364;SDS011;41245;45.384;20.390;2022-09-27T04:36:19;146.60;;;48.22;;
55364;SDS011;41245;45.384;20.390;2022-09-27T04:38:56;165.27;;;50.60;;
55364;SDS011;41245;45.384;20.390;2022-09-27T04:41:24;141.88;;;47.65;;
55364;SDS011;41245;45.384;20.390;2022-09-27T04:43:51;152.38;;;48.20;;
55364;SDS011;41245;45.384;20.390;2022-09-27T04:46:18;154.18;;;48.50;;
55364;SDS011;41245;45.384;20.390;2022-09-27T04:48:45;148.20;;;47.88;;
55364;SDS011;41245;45.384;20.390;2022-09-27T04:51:11;147.60;;;49.50;;
55364;SDS011;41245;45.384;20.390;2022-09-27T04:53:44;168.63;;;52.15;;
55364;SDS011;41245;45.384;20.390;2022-09-27T04:56:10;161.98;;;52.42;;
55364;SDS011;41245;45.384;20.390;2022-09-27T04:58:36;152.02;;;50.40;;
55364;SDS011;41245;45.384;20.390;2022-09-27T05:01:02;141.00;;;47.80;;
55364;SDS011;41245;45.384;20.390;2022-09-27T05:03:29;155.27;;;52.10;;
55364;SDS011;41245;45.384;20.390;2022-09-27T05:05:55;124.10;;;46.60;;
55364;SDS011;41245;45.384;20.390;2022-09-27T05:08:21;122.22;;;45.35;;
55364;SDS011;41245;45.384;20.390;2022-09-27T05:10:47;97.63;;;41.35;;
55364;SDS011;41245;45.384;20.390;2022-09-27T05:13:13;124.60;;;44.78;;
55364;SDS011;41245;45.384;20.390;2022-09-27T05:15:39;124.13;;;44.47;;
55364;SDS011;41245;45.384;20.390;2022-09-27T05:18:06;131.38;;;45.08;;
55364;SDS011;41245;45.384;20.390;2022-09-27T05:20:33;121.32;;;45.00;;
55364;SDS011;41245;45.384;20.390;2022-09-27T05:23:00;117.82;;;44.58;;
55364;SDS011;41245;45.384;20.390;2022-09-27T05:25:27;120.38;;;45.17;;
55364;SDS011;41245;45.384;20.390;2022-09-27T05:27:55;134.07;;;47.22;;
55364;SDS011;41245;45.384;20.390;2022-09-27T05:30:21;135.75;;;46.40;;
55364;SDS011;41245;45.384;20.390;2022-09-27T05:32:48;126.35;;;41.90;;
55364;SDS011;41245;45.384;20.390;2022-09-27T05:35:14;117.50;;;41.67;;
55364;SDS011;41245;45.384;20.390;2022-09-27T05:37:43;120.35;;;39.50;;
55364;SDS011;41245;45.384;20.390;2022-09-27T05:40:16;108.55;;;37.13;;
55364;SDS011;41245;45.384;20.390;2022-09-27T05:42:41;97.45;;;34.78;;
55364;SDS011;41245;45.384;20.390;2022-09-27T05:45:07;98.82;;;33.45;;
55364;SDS011;41245;45.384;20.390;2022-09-27T05:47:33;99.80;;;33.95;;
55364;SDS011;41245;45.384;20.390;2022-09-27T05:49:59;102.78;;;33.90;;
55364;SDS011;41245;45.384;20.390;2022-09-27T05:52:25;116.78;;;35.95;;
55364;SDS011;41245;45.384;20.390;2022-09-27T05:54:51;114.40;;;35.85;;
55364;SDS011;41245;45.384;20.390;2022-09-27T05:57:16;115.65;;;35.42;;
55364;SDS011;41245;45.384;20.390;2022-09-27T05:59:42;87.55;;;30.48;;
55364;SDS011;41245;45.384;20.390;2022-09-27T06:02:09;99.72;;;33.13;;
55364;SDS011;41245;45.384;20.390;2022-09-27T06:04:35;102.38;;;31.85;;
55364;SDS011;41245;45.384;20.390;2022-09-27T06:07:01;92.53;;;31.67;;
55364;SDS011;41245;45.384;20.390;2022-09-27T06:09:27;97.32;;;30.85;;
55364;SDS011;41245;45.384;20.390;2022-09-27T06:11:53;92.47;;;30.30;;
55364;SDS011;41245;45.384;20.390;2022-09-27T06:14:19;83.78;;;29.63;;
55364;SDS011;41245;45.384;20.390;2022-09-27T06:16:45;84.75;;;29.25;;
55364;SDS011;41245;45.384;20.390;2022-09-27T06:19:10;85.70;;;28.58;;
55364;SDS011;41245;45.384;20.390;2022-09-27T06:21:37;78.47;;;26.92;;
55364;SDS011;41245;45.384;20.390;2022-09-27T06:24:02;74.75;;;28.30;;
55364;SDS011;41245;45.384;20.390;2022-09-27T06:26:28;71.90;;;28.80;;
55364;SDS011;41245;45.384;20.390;2022-09-27T06:28:54;64.57;;;26.85;;
55364;SDS011;41245;45.384;20.390;2022-09-27T06:31:21;68.05;;;27.10;;
55364;SDS011;41245;45.384;20.390;2022-09-27T06:33:47;55.75;;;24.30;;
55364;SDS011;41245;45.384;20.390;2022-09-27T06:36:13;52.28;;;23.95;;
55364;SDS011;41245;45.384;20.390;2022-09-27T06:38:39;43.28;;;20.63;;
55364;SDS011;41245;45.384;20.390;2022-09-27T06:41:06;39.67;;;20.27;;
55364;SDS011;41245;45.384;20.390;2022-09-27T06:43:33;47.13;;;23.23;;
55364;SDS011;41245;45.384;20.390;2022-09-27T06:45:59;42.13;;;20.33;;
55364;SDS011;41245;45.384;20.390;2022-09-27T06:48:30;41.40;;;21.30;;
55364;SDS011;41245;45.384;20.390;2022-09-27T06:50:56;41.80;;;21.50;;
55364;SDS011;41245;45.384;20.390;2022-09-27T06:53:23;39.20;;;20.55;;
55364;SDS011;41245;45.384;20.390;2022-09-27T06:55:49;42.65;;;21.10;;
55364;SDS011;41245;45.384;20.390;2022-09-27T06:58:15;38.22;;;20.23;;
55364;SDS011;41245;45.384;20.390;2022-09-27T07:01:00;35.28;;;20.98;;
55364;SDS011;41245;45.384;20.390;2022-09-27T07:03:27;32.38;;;19.70;;
55364;SDS011;41245;45.384;20.390;2022-09-27T07:06:00;33.67;;;20.45;;
55364;SDS011;41245;45.384;20.390;2022-09-27T07:08:27;30.02;;;19.00;;
55364;SDS011;41245;45.384;20.390;2022-09-27T07:10:54;30.95;;;18.83;;
55364;SDS011;41245;45.384;20.390;2022-09-27T07:13:24;27.45;;;17.00;;
55364;SDS011;41245;45.384;20.390;2022-09-27T07:15:54;29.60;;;18.40;;
55364;SDS011;41245;45.384;20.390;2022-09-27T07:18:19;28.98;;;18.55;;
55364;SDS011;41245;45.384;20.390;2022-09-27T07:20:45;27.95;;;17.92;;
55364;SDS011;41245;45.384;20.390;2022-09-27T07:23:11;28.63;;;19.20;;
55364;SDS011;41245;45.384;20.390;2022-09-27T07:25:38;25.98;;;17.38;;
55364;SDS011;41245;45.384;20.390;2022-09-27T07:28:05;26.20;;;17.23;;
55364;SDS011;41245;45.384;20.390;2022-09-27T07:30:32;27.83;;;17.80;;
55364;SDS011;41245;45.384;20.390;2022-09-27T07:33:02;29.10;;;18.92;;
55364;SDS011;41245;45.384;20.390;2022-09-27T07:35:29;33.47;;;22.58;;
55364;SDS011;41245;45.384;20.390;2022-09-27T07:37:56;32.00;;;20.58;;
55364;SDS011;41245;45.384;20.390;2022-09-27T07:40:23;24.27;;;17.40;;
55364;SDS011;41245;45.384;20.390;2022-09-27T07:42:56;28.00;;;19.02;;
55364;SDS011;41245;45.384;20.390;2022-09-27T07:45:23;26.33;;;17.70;;
55364;SDS011;41245;45.384;20.390;2022-09-27T07:47:49;28.35;;;16.83;;
55364;SDS011;41245;45.384;20.390;2022-09-27T07:50:15;27.88;;;17.67;;
55364;SDS011;41245;45.384;20.390;2022-09-27T07:52:42;30.23;;;17.95;;
55364;SDS011;41245;45.384;20.390;2022-09-27T07:55:09;28.80;;;18.38;;
55364;SDS011;41245;45.384;20.390;2022-09-27T07:57:37;27.70;;;19.77;;
55364;SDS011;41245;45.384;20.390;2022-09-27T08:00:05;27.63;;;19.50;;
55364;SDS011;41245;45.384;20.390;2022-09-27T08:02:37;26.15;;;17.30;;
55364;SDS011;41245;45.384;20.390;2022-09-27T08:05:03;24.75;;;18.30;;
55364;SDS011;41245;45.384;20.390;2022-09-27T08:07:29;25.05;;;19.10;;
55364;SDS011;41245;45.384;20.390;2022-09-27T08:09:56;26.27;;;19.25;;
55364;SDS011;41245;45.384;20.390;2022-09-27T08:12:22;41.03;;;28.02;;
55364;SDS011;41245;45.384;20.390;2022-09-27T08:14:48;26.92;;;18.63;;
55364;SDS011;41245;45.384;20.390;2022-09-27T08:17:15;28.92;;;20.95;;
55364;SDS011;41245;45.384;20.390;2022-09-27T08:19:41;25.23;;;20.27;;
55364;SDS011;41245;45.384;20.390;2022-09-27T08:22:09;30.95;;;19.73;;
55364;SDS011;41245;45.384;20.390;2022-09-27T08:24:38;27.40;;;20.92;;
55364;SDS011;41245;45.384;20.390;2022-09-27T08:27:04;34.42;;;23.00;;
55364;SDS011;41245;45.384;20.390;2022-09-27T08:29:32;43.05;;;26.00;;
55364;SDS011;41245;45.384;20.390;2022-09-27T08:32:06;42.95;;;25.33;;
55364;SDS011;41245;45.384;20.390;2022-09-27T08:34:32;51.22;;;30.73;;
55364;SDS011;41245;45.384;20.390;2022-09-27T08:36:58;46.13;;;27.75;;
55364;SDS011;41245;45.384;20.390;2022-09-27T08:39:24;42.90;;;26.48;;
55364;SDS011;41245;45.384;20.390;2022-09-27T08:47:38;35.35;;;23.42;;
55364;SDS011;41245;45.384;20.390;2022-09-27T08:50:24;29.90;;;19.45;;
55364;SDS011;41245;45.384;20.390;2022-09-27T08:52:59;30.23;;;19.38;;
55364;SDS011;41245;45.384;20.390;2022-09-27T08:55:35;27.40;;;18.58;;
55364;SDS011;41245;45.384;20.390;2022-09-27T09:01:14;24.48;;;16.85;;
55364;SDS011;41245;45.384;20.390;2022-09-27T09:03:59;18.52;;;14.10;;
55364;SDS011;41245;45.384;20.390;2022-09-27T09:18:01;15.20;;;11.57;;
55364;SDS011;41245;45.384;20.390;2022-09-27T09:23:47;11.77;;;10.43;;
55364;SDS011;41245;45.384;20.390;2022-09-27T09:31:12;17.95;;;11.95;;
55364;SDS011;41245;45.384;20.390;2022-09-27T09:33:59;17.20;;;13.77;;
55364;SDS011;41245;45.384;20.390;2022-09-27T09:36:41;12.95;;;11.20;;
55364;SDS011;41245;45.384;20.390;2022-09-27T09:39:38;14.00;;;12.30;;
55364;SDS011;41245;45.384;20.390;2022-09-27T09:42:16;13.10;;;10.23;;
55364;SDS011;41245;45.384;20.390;2022-09-27T09:50:17;11.88;;;10.63;;
55364;SDS011;41245;45.384;20.390;2022-09-27T09:52:48;13.70;;;11.00;;
55364;SDS011;41245;45.384;20.390;2022-09-27T09:55:25;16.27;;;11.95;;
55364;SDS011;41245;45.384;20.390;2022-09-27T09:58:00;41.38;;;33.00;;
55364;SDS011;41245;45.384;20.390;2022-09-27T10:00:49;18.60;;;15.57;;
55364;SDS011;41245;45.384;20.390;2022-09-27T10:03:18;26.13;;;17.95;;
55364;SDS011;41245;45.384;20.390;2022-09-27T10:05:44;20.50;;;16.30;;
55364;SDS011;41245;45.384;20.390;2022-09-27T10:08:12;16.27;;;14.10;;
55364;SDS011;41245;45.384;20.390;2022-09-27T10:10:44;16.08;;;14.32;;
55364;SDS011;41245;45.384;20.390;2022-09-27T10:13:20;16.10;;;14.27;;
55364;SDS011;41245;45.384;20.390;2022-09-27T10:15:50;15.80;;;14.30;;
55364;SDS011;41245;45.384;20.390;2022-09-27T10:18:27;18.65;;;14.20;;
55364;SDS011;41245;45.384;20.390;2022-09-27T10:20:57;14.60;;;13.10;;
55364;SDS011;41245;45.384;20.390;2022-09-27T10:23:28;15.52;;;13.25;;
55364;SDS011;41245;45.384;20.390;2022-09-27T10:28:34;19.05;;;14.75;;
55364;SDS011;41245;45.384;20.390;2022-09-27T10:31:05;20.45;;;14.02;;
55364;SDS011;41245;45.384;20.390;2022-09-27T10:33:33;19.73;;;13.57;;
55364;SDS011;41245;45.384;20.390;2022-09-27T10:36:01;22.10;;;16.08;;
55364;SDS011;41245;45.384;20.390;2022-09-27T10:40:56;30.10;;;20.63;;
55364;SDS011;41245;45.384;20.390;2022-09-27T10:43:39;26.60;;;21.95;;
55364;SDS011;41245;45.384;20.390;2022-09-27T10:46:08;167.15;;;32.38;;
55364;SDS011;41245;45.384;20.390;2022-09-27T10:48:43;107.38;;;35.17;;
55364;SDS011;41245;45.384;20.390;2022-09-27T10:53:47;68.88;;;32.90;;
55364;SDS011;41245;45.384;20.390;2022-09-27T10:56:23;99.60;;;44.03;;
55364;SDS011;41245;45.384;20.390;2022-09-27T10:58:53;96.30;;;44.45;;
55364;SDS011;41245;45.384;20.390;2022-09-27T11:01:20;82.47;;;40.88;;
55364;SDS011;41245;45.384;20.390;2022-09-27T11:03:47;59.00;;;32.35;;
55364;SDS011;41245;45.384;20.390;2022-09-27T11:08:47;41.33;;;25.77;;
55364;SDS011;41245;45.384;20.390;2022-09-27T11:13:40;25.85;;;19.65;;
55364;SDS011;41245;45.384;20.390;2022-09-27T11:21:37;15.57;;;9.48;;
55364;SDS011;41245;45.384;20.390;2022-09-27T11:27:04;20.10;;;15.98;;
55364;SDS011;41245;45.384;20.390;2022-09-27T11:29:52;17.80;;;13.70;;
55364;SDS011;41245;45.384;20.390;2022-09-27T11:41:34;28.92;;;24.00;;
55364;SDS011;41245;45.384;20.390;2022-09-27T11:46:52;26.70;;;22.40;;
55364;SDS011;41245;45.384;20.390;2022-09-27T11:55:08;27.38;;;22.25;;
55364;SDS011;41245;45.384;20.390;2022-09-27T12:00:34;24.98;;;21.42;;
55364;SDS011;41245;45.384;20.390;2022-09-27T12:09:16;23.77;;;20.33;;
55364;SDS011;41245;45.384;20.390;2022-09-27T12:11:51;26.38;;;19.63;;
55364;SDS011;41245;45.384;20.390;2022-09-27T12:14:22;20.50;;;18.40;;
55364;SDS011;41245;45.384;20.390;2022-09-27T12:17:02;22.55;;;20.08;;
55364;SDS011;41245;45.384;20.390;2022-09-27T12:19:35;26.80;;;20.00;;
55364;SDS011;41245;45.384;20.390;2022-09-27T12:22:06;19.20;;;17.30;;
55364;SDS011;41245;45.384;20.390;2022-09-27T12:24:38;20.48;;;17.50;;
55364;SDS011;41245;45.384;20.390;2022-09-27T12:27:09;23.98;;;17.55;;
55364;SDS011;41245;45.384;20.390;2022-09-27T12:29:40;19.02;;;16.08;;
55364;SDS011;41245;45.384;20.390;2022-09-27T12:32:10;20.85;;;17.33;;
55364;SDS011;41245;45.384;20.390;2022-09-27T12:37:56;18.40;;;16.50;;
55364;SDS011;41245;45.384;20.390;2022-09-27T12:43:03;18.70;;;16.73;;
55364;SDS011;41245;45.384;20.390;2022-09-27T12:56:54;17.50;;;15.77;;
55364;SDS011;41245;45.384;20.390;2022-09-27T13:02:30;22.30;;;18.77;;
55364;SDS011;41245;45.384;20.390;2022-09-27T13:13:42;23.95;;;21.05;;
55364;SDS011;41245;45.384;20.390;2022-09-27T13:16:08;25.73;;;20.77;;
55364;SDS011;41245;45.384;20.390;2022-09-27T13:21:00;25.05;;;21.60;;
55364;SDS011;41245;45.384;20.390;2022-09-27T13:25:55;28.58;;;25.15;;
55364;SDS011;41245;45.384;20.390;2022-09-27T13:31:03;30.48;;;25.63;;
55364;SDS011;41245;45.384;20.390;2022-09-27T13:39:03;36.22;;;28.00;;
55364;SDS011;41245;45.384;20.390;2022-09-27T13:50:23;46.97;;;32.33;;
55364;SDS011;41245;45.384;20.390;2022-09-27T13:53:05;54.30;;;34.70;;
55364;SDS011;41245;45.384;20.390;2022-09-27T13:55:48;52.13;;;36.53;;
55364;SDS011;41245;45.384;20.390;2022-09-27T14:00:47;36.90;;;26.95;;
55364;SDS011;41245;45.384;20.390;2022-09-27T14:03:26;33.15;;;24.23;;
55364;SDS011;41245;45.384;20.390;2022-09-27T14:06:00;27.15;;;20.05;;
55364;SDS011;41245;45.384;20.390;2022-09-27T14:08:42;27.85;;;21.35;;
55364;SDS011;41245;45.384;20.390;2022-09-27T14:11:47;30.55;;;21.58;;
55364;SDS011;41245;45.384;20.390;2022-09-27T14:14:12;33.20;;;23.65;;
55364;SDS011;41245;45.384;20.390;2022-09-27T14:16:43;33.70;;;25.20;;
55364;SDS011;41245;45.384;20.390;2022-09-27T14:19:15;29.42;;;18.58;;
55364;SDS011;41245;45.384;20.390;2022-09-27T14:21:43;26.95;;;19.30;;
55364;SDS011;41245;45.384;20.390;2022-09-27T14:27:13;26.85;;;19.60;;
55364;SDS011;41245;45.384;20.390;2022-09-27T14:30:00;27.50;;;21.58;;
55364;SDS011;41245;45.384;20.390;2022-09-27T14:32:46;27.35;;;19.77;;
55364;SDS011;41245;45.384;20.390;2022-09-27T14:35:19;27.65;;;20.27;;
55364;SDS011;41245;45.384;20.390;2022-09-27T14:38:06;29.65;;;20.65;;
55364;SDS011;41245;45.384;20.390;2022-09-27T14:43:26;26.05;;;20.27;;
55364;SDS011;41245;45.384;20.390;2022-09-27T14:45:57;27.17;;;21.23;;
55364;SDS011;41245;45.384;20.390;2022-09-27T14:51:03;31.25;;;23.52;;
55364;SDS011;41245;45.384;20.390;2022-09-27T14:53:39;29.80;;;23.65;;
55364;SDS011;41245;45.384;20.390;2022-09-27T14:56:21;34.10;;;23.88;;
55364;SDS011;41245;45.384;20.390;2022-09-27T14:59:27;30.23;;;23.77;;
55364;SDS011;41245;45.384;20.390;2022-09-27T15:01:59;36.25;;;26.23;;
55364;SDS011;41245;45.384;20.390;2022-09-27T15:04:34;31.15;;;24.05;;
55364;SDS011;41245;45.384;20.390;2022-09-27T15:07:01;33.80;;;24.50;;
55364;SDS011;41245;45.384;20.390;2022-09-27T15:09:27;35.75;;;25.65;;
55364;SDS011;41245;45.384;20.390;2022-09-27T15:11:56;32.80;;;23.85;;
55364;SDS011;41245;45.384;20.390;2022-09-27T15:14:25;33.53;;;24.67;;
55364;SDS011;41245;45.384;20.390;2022-09-27T15:16:53;32.13;;;22.33;;
55364;SDS011;41245;45.384;20.390;2022-09-27T15:19:26;27.90;;;20.85;;
55364;SDS011;41245;45.384;20.390;2022-09-27T15:21:53;31.65;;;21.35;;
55364;SDS011;41245;45.384;20.390;2022-09-27T15:24:42;31.48;;;21.23;;
55364;SDS011;41245;45.384;20.390;2022-09-27T15:27:16;31.00;;;22.83;;
55364;SDS011;41245;45.384;20.390;2022-09-27T15:29:48;29.58;;;22.05;;
55364;SDS011;41245;45.384;20.390;2022-09-27T15:32:16;30.92;;;22.77;;
55364;SDS011;41245;45.384;20.390;2022-09-27T15:34:44;29.90;;;20.35;;
55364;SDS011;41245;45.384;20.390;2022-09-27T15:37:43;26.67;;;19.38;;
55364;SDS011;41245;45.384;20.390;2022-09-27T15:42:55;25.38;;;18.65;;
55364;SDS011;41245;45.384;20.390;2022-09-27T15:45:30;24.65;;;18.50;;
55364;SDS011;41245;45.384;20.390;2022-09-27T15:48:05;22.80;;;16.73;;
55364;SDS011;41245;45.384;20.390;2022-09-27T15:50:38;23.80;;;17.38;;
55364;SDS011;41245;45.384;20.390;2022-09-27T15:53:05;26.48;;;17.13;;
55364;SDS011;41245;45.384;20.390;2022-09-27T15:55:33;25.98;;;16.30;;
55364;SDS011;41245;45.384;20.390;2022-09-27T15:58:15;21.08;;;15.30;;
55364;SDS011;41245;45.384;20.390;2022-09-27T16:00:54;19.50;;;14.32;;
55364;SDS011;41245;45.384;20.390;2022-09-27T16:03:21;20.98;;;15.40;;
55364;SDS011;41245;45.384;20.390;2022-09-27T16:05:48;17.58;;;13.48;;
55364;SDS011;41245;45.384;20.390;2022-09-27T16:08:14;20.30;;;12.75;;
55364;SDS011;41245;45.384;20.390;2022-09-27T16:10:50;26.50;;;14.60;;
55364;SDS011;41245;45.384;20.390;2022-09-27T16:13:17;21.70;;;12.43;;
55364;SDS011;41245;45.384;20.390;2022-09-27T16:15:43;17.15;;;12.13;;
55364;SDS011;41245;45.384;20.390;2022-09-27T16:18:10;16.90;;;12.10;;
55364;SDS011;41245;45.384;20.390;2022-09-27T16:20:37;19.20;;;12.32;;
55364;SDS011;41245;45.384;20.390;2022-09-27T16:23:03;15.25;;;10.95;;
55364;SDS011;41245;45.384;20.390;2022-09-27T16:25:28;19.88;;;10.95;;
55364;SDS011;41245;45.384;20.390;2022-09-27T16:27:57;18.70;;;11.60;;
55364;SDS011;41245;45.384;20.390;2022-09-27T16:30:24;20.27;;;10.82;;
55364;SDS011;41245;45.384;20.390;2022-09-27T16:32:50;17.90;;;11.45;;
55364;SDS011;41245;45.384;20.390;2022-09-27T16:35:17;20.58;;;11.90;;
55364;SDS011;41245;45.384;20.390;2022-09-27T16:37:44;22.65;;;11.27;;
55364;SDS011;41245;45.384;20.390;2022-09-27T16:40:11;21.75;;;12.45;;
55364;SDS011;41245;45.384;20.390;2022-09-27T16:42:37;22.52;;;11.55;;
55364;SDS011;41245;45.384;20.390;2022-09-27T16:45:04;24.23;;;11.93;;
55364;SDS011;41245;45.384;20.390;2022-09-27T16:47:31;37.05;;;17.65;;
55364;SDS011;41245;45.384;20.390;2022-09-27T16:49:57;34.63;;;13.70;;
55364;SDS011;41245;45.384;20.390;2022-09-27T16:52:41;29.33;;;15.05;;
55364;SDS011;41245;45.384;20.390;2022-09-27T16:55:11;27.73;;;16.52;;
55364;SDS011;41245;45.384;20.390;2022-09-27T16:57:38;33.25;;;17.88;;
55364;SDS011;41245;45.384;20.390;2022-09-27T17:00:07;36.70;;;19.75;;
55364;SDS011;41245;45.384;20.390;2022-09-27T17:02:33;29.85;;;18.88;;
55364;SDS011;41245;45.384;20.390;2022-09-27T17:05:00;28.38;;;17.13;;
55364;SDS011;41245;45.384;20.390;2022-09-27T17:07:26;26.13;;;16.65;;
55364;SDS011;41245;45.384;20.390;2022-09-27T17:09:52;26.15;;;16.00;;
55364;SDS011;41245;45.384;20.390;2022-09-27T17:12:18;33.75;;;18.25;;
55364;SDS011;41245;45.384;20.390;2022-09-27T17:14:43;27.23;;;17.17;;
55364;SDS011;41245;45.384;20.390;2022-09-27T17:17:09;26.45;;;16.92;;
55364;SDS011;41245;45.384;20.390;2022-09-27T17:19:35;31.77;;;17.20;;
55364;SDS011;41245;45.384;20.390;2022-09-27T17:22:03;28.52;;;15.43;;
55364;SDS011;41245;45.384;20.390;2022-09-27T17:24:30;28.20;;;16.35;;
55364;SDS011;41245;45.384;20.390;2022-09-27T17:26:56;24.60;;;14.35;;
55364;SDS011;41245;45.384;20.390;2022-09-27T17:29:21;20.92;;;13.55;;
55364;SDS011;41245;45.384;20.390;2022-09-27T17:31:47;27.60;;;13.68;;